sensor_id;sensor_type;location;lat;lon;timestamp;P1;P2;P0
37290;PMS5003;23175;-33.706;151.094;2023-07-20T00:01:08;4;3;
37290;PMS5003;23175;-33.706;151.094;2023-07-20T00:03:38;6;2;
37290;PMS5003;23175;-33.706;151.094;2023-07-20T00:06:09;4;1;
37290;PMS5003;23175;-33.706;151.094;2023-07-20T00:08:38;2;1;
37290;PMS5003;23175;-33.706;151.094;2023-07-20T00:11:08;1;1;
37290;PMS5003;23175;-33.706;151.094;2023-07-20T00:13:39;1;1;
37290;PMS5003;23175;-33.706;151.094;2023-07-20T00:16:09;3;1;
37290;PMS5003;23175;-33.706;151.094;2023-07-20T00:18:39;4;2;
37290;PMS5003;23175;-33.706;151.094;2023-07-20T00:21:08;3;1;
37290;PMS5003;23175;-33.706;151.094;2023-07-20T00:23:38;2;2;
37290;PMS5003;23175;-33.706;151.094;2023-07-20T00:26:15;6;1;
37290;PMS5003;23175;-33.706;151.094;2023-07-20T00:28:45;3;1;
37290;PMS5003;23175;-33.706;151.094;2023-07-20T00:31:16;1;1;
37290;PMS5003;23175;-33.706;151.094;2023-07-20T00:33:46;5;4;
37290;PMS5003;23175;-33.706;151.094;2023-07-20T00:36:16;1;1;
37290;PMS5003;23175;-33.706;151.094;2023-07-20T00:38:46;2;2;
37290;PMS5003;23175;-33.706;151.094;2023-07-20T00:41:16;1;0;
37290;PMS5003;23175;-33.706;151.094;2023-07-20T00:43:45;4;1;
37290;PMS5003;23175;-33.706;151.094;2023-07-20T00:46:16;0;0;
37290;PMS5003;23175;-33.706;151.094;2023-07-20T00:48:51;2;0;
37290;PMS5003;23175;-33.706;151.094;2023-07-20T00:51:21;1;1;
37290;PMS5003;23175;-33.706;151.094;2023-07-20T00:53:53;1;1;
37290;PMS5003;23175;-33.706;151.094;2023-07-20T00:56:22;1;1;
37290;PMS5003;23175;-33.706;151.094;2023-07-20T00:58:52;1;1;
37290;PMS5003;23175;-33.706;151.094;2023-07-20T01:01:22;0;0;
37290;PMS5003;23175;-33.706;151.094;2023-07-20T01:03:52;2;1;
37290;PMS5003;23175;-33.706;151.094;2023-07-20T01:06:24;2;2;
37290;PMS5003;23175;-33.706;151.094;2023-07-20T01:09:02;2;2;
37290;PMS5003;23175;-33.706;151.094;2023-07-20T01:11:46;3;2;
37290;PMS5003;23175;-33.706;151.094;2023-07-20T01:14:22;1;1;
37290;PMS5003;23175;-33.706;151.094;2023-07-20T01:16:53;1;0;
37290;PMS5003;23175;-33.706;151.094;2023-07-20T01:19:28;4;2;
37290;PMS5003;23175;-33.706;151.094;2023-07-20T01:22:03;4;1;
37290;PMS5003;23175;-33.706;151.094;2023-07-20T01:24:56;2;1;
37290;PMS5003;23175;-33.706;151.094;2023-07-20T01:27:45;0;0;
37290;PMS5003;23175;-33.706;151.094;2023-07-20T01:30:39;1;1;
37290;PMS5003;23175;-33.706;151.094;2023-07-20T01:33:19;2;1;
37290;PMS5003;23175;-33.706;151.094;2023-07-20T01:35:52;1;0;
37290;PMS5003;23175;-33.706;151.094;2023-07-20T01:38:25;0;0;
37290;PMS5003;23175;-33.706;151.094;2023-07-20T01:40:56;1;1;
37290;PMS5003;23175;-33.706;151.094;2023-07-20T01:43:27;2;2;
37290;PMS5003;23175;-33.706;151.094;2023-07-20T01:45:57;2;2;
37290;PMS5003;23175;-33.706;151.094;2023-07-20T01:48:26;0;0;
37290;PMS5003;23175;-33.706;151.094;2023-07-20T01:50:56;0;0;
37290;PMS5003;23175;-33.706;151.094;2023-07-20T01:53:26;0;0;
37290;PMS5003;23175;-33.706;151.094;2023-07-20T01:55:56;2;1;
37290;PMS5003;23175;-33.706;151.094;2023-07-20T01:58:27;2;1;
37290;PMS5003;23175;-33.706;151.094;2023-07-20T02:00:57;1;1;
37290;PMS5003;23175;-33.706;151.094;2023-07-20T02:03:27;3;1;
37290;PMS5003;23175;-33.706;151.094;2023-07-20T02:05:57;6;5;
37290;PMS5003;23175;-33.706;151.094;2023-07-20T02:08:27;1;1;
37290;PMS5003;23175;-33.706;151.094;2023-07-20T02:10:57;0;0;
37290;PMS5003;23175;-33.706;151.094;2023-07-20T02:13:31;0;0;
37290;PMS5003;23175;-33.706;151.094;2023-07-20T02:16:01;2;1;
37290;PMS5003;23175;-33.706;151.094;2023-07-20T02:18:31;1;1;
37290;PMS5003;23175;-33.706;151.094;2023-07-20T02:21:01;0;0;
37290;PMS5003;23175;-33.706;151.094;2023-07-20T02:23:31;0;0;
37290;PMS5003;23175;-33.706;151.094;2023-07-20T02:26:06;1;1;
37290;PMS5003;23175;-33.706;151.094;2023-07-20T02:28:35;0;0;
37290;PMS5003;23175;-33.706;151.094;2023-07-20T02:31:05;1;1;
37290;PMS5003;23175;-33.706;151.094;2023-07-20T02:33:35;2;1;
37290;PMS5003;23175;-33.706;151.094;2023-07-20T02:36:06;1;0;
37290;PMS5003;23175;-33.706;151.094;2023-07-20T02:38:35;0;0;
37290;PMS5003;23175;-33.706;151.094;2023-07-20T02:41:05;3;1;
37290;PMS5003;23175;-33.706;151.094;2023-07-20T02:43:35;0;0;
37290;PMS5003;23175;-33.706;151.094;2023-07-20T02:46:05;1;1;
37290;PMS5003;23175;-33.706;151.094;2023-07-20T02:48:35;0;0;
37290;PMS5003;23175;-33.706;151.094;2023-07-20T02:51:05;0;0;
37290;PMS5003;23175;-33.706;151.094;2023-07-20T02:53:34;2;0;
37290;PMS5003;23175;-33.706;151.094;2023-07-20T02:56:04;1;1;
37290;PMS5003;23175;-33.706;151.094;2023-07-20T02:58:34;0;0;
37290;PMS5003;23175;-33.706;151.094;2023-07-20T03:01:08;1;1;
37290;PMS5003;23175;-33.706;151.094;2023-07-20T03:03:43;0;0;
37290;PMS5003;23175;-33.706;151.094;2023-07-20T03:06:13;3;2;
37290;PMS5003;23175;-33.706;151.094;2023-07-20T03:08:43;0;0;
37290;PMS5003;23175;-33.706;151.094;2023-07-20T03:11:13;0;0;
37290;PMS5003;23175;-33.706;151.094;2023-07-20T03:13:44;1;1;
37290;PMS5003;23175;-33.706;151.094;2023-07-20T03:16:15;0;0;
37290;PMS5003;23175;-33.706;151.094;2023-07-20T03:18:46;1;0;
37290;PMS5003;23175;-33.706;151.094;2023-07-20T03:21:16;0;0;
37290;PMS5003;23175;-33.706;151.094;2023-07-20T03:23:47;8;7;
37290;PMS5003;23175;-33.706;151.094;2023-07-20T03:26:17;0;0;
37290;PMS5003;23175;-33.706;151.094;2023-07-20T03:28:48;0;0;
37290;PMS5003;23175;-33.706;151.094;2023-07-20T03:31:18;0;0;
37290;PMS5003;23175;-33.706;151.094;2023-07-20T03:33:48;2;0;
37290;PMS5003;23175;-33.706;151.094;2023-07-20T03:36:19;1;1;
37290;PMS5003;23175;-33.706;151.094;2023-07-20T03:38:49;1;0;
37290;PMS5003;23175;-33.706;151.094;2023-07-20T03:41:19;2;0;
37290;PMS5003;23175;-33.706;151.094;2023-07-20T03:43:49;0;0;
37290;PMS5003;23175;-33.706;151.094;2023-07-20T03:46:20;1;1;
37290;PMS5003;23175;-33.706;151.094;2023-07-20T03:48:50;0;0;
37290;PMS5003;23175;-33.706;151.094;2023-07-20T03:51:20;1;1;
37290;PMS5003;23175;-33.706;151.094;2023-07-20T03:53:50;1;1;
37290;PMS5003;23175;-33.706;151.094;2023-07-20T03:56:20;1;1;
37290;PMS5003;23175;-33.706;151.094;2023-07-20T03:58:50;1;1;
37290;PMS5003;23175;-33.706;151.094;2023-07-20T04:01:21;1;1;
37290;PMS5003;23175;-33.706;151.094;2023-07-20T04:03:52;0;0;
37290;PMS5003;23175;-33.706;151.094;2023-07-20T04:06:21;0;0;
37290;PMS5003;23175;-33.706;151.094;2023-07-20T04:08:51;0;0;
37290;PMS5003;23175;-33.706;151.094;2023-07-20T04:11:22;0;0;
37290;PMS5003;23175;-33.706;151.094;2023-07-20T04:13:52;1;1;
37290;PMS5003;23175;-33.706;151.094;2023-07-20T04:16:21;2;1;
37290;PMS5003;23175;-33.706;151.094;2023-07-20T04:18:52;0;0;
37290;PMS5003;23175;-33.706;151.094;2023-07-20T04:21:25;1;1;
37290;PMS5003;23175;-33.706;151.094;2023-07-20T04:23:55;0;0;
37290;PMS5003;23175;-33.706;151.094;2023-07-20T04:26:26;0;0;
37290;PMS5003;23175;-33.706;151.094;2023-07-20T04:28:55;0;0;
37290;PMS5003;23175;-33.706;151.094;2023-07-20T04:31:30;1;1;
37290;PMS5003;23175;-33.706;151.094;2023-07-20T04:34:00;1;1;
37290;PMS5003;23175;-33.706;151.094;2023-07-20T04:36:30;0;0;
37290;PMS5003;23175;-33.706;151.094;2023-07-20T04:39:00;5;1;
37290;PMS5003;23175;-33.706;151.094;2023-07-20T04:41:31;1;1;
37290;PMS5003;23175;-33.706;151.094;2023-07-20T04:44:02;1;1;
37290;PMS5003;23175;-33.706;151.094;2023-07-20T04:46:32;1;1;
37290;PMS5003;23175;-33.706;151.094;2023-07-20T04:49:02;1;0;
37290;PMS5003;23175;-33.706;151.094;2023-07-20T04:51:31;0;0;
37290;PMS5003;23175;-33.706;151.094;2023-07-20T04:54:01;0;0;
37290;PMS5003;23175;-33.706;151.094;2023-07-20T04:56:31;0;0;
37290;PMS5003;23175;-33.706;151.094;2023-07-20T04:59:02;1;1;
37290;PMS5003;23175;-33.706;151.094;2023-07-20T05:01:31;3;3;
37290;PMS5003;23175;-33.706;151.094;2023-07-20T05:04:02;2;2;
37290;PMS5003;23175;-33.706;151.094;2023-07-20T05:06:32;0;0;
37290;PMS5003;23175;-33.706;151.094;2023-07-20T05:09:01;0;0;
37290;PMS5003;23175;-33.706;151.094;2023-07-20T05:11:31;0;0;
37290;PMS5003;23175;-33.706;151.094;2023-07-20T05:14:01;0;0;
37290;PMS5003;23175;-33.706;151.094;2023-07-20T05:16:31;0;0;
37290;PMS5003;23175;-33.706;151.094;2023-07-20T05:19:06;1;1;
37290;PMS5003;23175;-33.706;151.094;2023-07-20T05:21:35;0;0;
37290;PMS5003;23175;-33.706;151.094;2023-07-20T05:24:10;0;0;
37290;PMS5003;23175;-33.706;151.094;2023-07-20T05:26:40;0;0;
37290;PMS5003;23175;-33.706;151.094;2023-07-20T05:29:10;0;0;
37290;PMS5003;23175;-33.706;151.094;2023-07-20T05:31:40;1;1;
37290;PMS5003;23175;-33.706;151.094;2023-07-20T05:34:09;1;1;
37290;PMS5003;23175;-33.706;151.094;2023-07-20T05:36:39;0;0;
37290;PMS5003;23175;-33.706;151.094;2023-07-20T05:39:09;0;0;
37290;PMS5003;23175;-33.706;151.094;2023-07-20T05:41:39;1;1;
37290;PMS5003;23175;-33.706;151.094;2023-07-20T05:44:08;0;0;
37290;PMS5003;23175;-33.706;151.094;2023-07-20T05:46:38;4;1;
37290;PMS5003;23175;-33.706;151.094;2023-07-20T05:49:08;0;0;
37290;PMS5003;23175;-33.706;151.094;2023-07-20T05:51:38;1;1;
37290;PMS5003;23175;-33.706;151.094;2023-07-20T05:54:07;1;1;
37290;PMS5003;23175;-33.706;151.094;2023-07-20T05:56:37;1;1;
37290;PMS5003;23175;-33.706;151.094;2023-07-20T05:59:12;0;0;
37290;PMS5003;23175;-33.706;151.094;2023-07-20T06:01:42;1;1;
37290;PMS5003;23175;-33.706;151.094;2023-07-20T06:04:13;0;0;
37290;PMS5003;23175;-33.706;151.094;2023-07-20T06:06:42;1;1;
37290;PMS5003;23175;-33.706;151.094;2023-07-20T06:09:17;0;0;
37290;PMS5003;23175;-33.706;151.094;2023-07-20T06:11:47;0;0;
37290;PMS5003;23175;-33.706;151.094;2023-07-20T06:14:18;0;0;
37290;PMS5003;23175;-33.706;151.094;2023-07-20T06:16:47;1;0;
37290;PMS5003;23175;-33.706;151.094;2023-07-20T06:19:19;0;0;
37290;PMS5003;23175;-33.706;151.094;2023-07-20T06:21:49;0;0;
37290;PMS5003;23175;-33.706;151.094;2023-07-20T06:24:19;0;0;
37290;PMS5003;23175;-33.706;151.094;2023-07-20T06:26:49;0;0;
37290;PMS5003;23175;-33.706;151.094;2023-07-20T06:29:19;2;2;
37290;PMS5003;23175;-33.706;151.094;2023-07-20T06:31:49;1;1;
37290;PMS5003;23175;-33.706;151.094;2023-07-20T06:34:20;0;0;
37290;PMS5003;23175;-33.706;151.094;2023-07-20T06:36:50;1;1;
37290;PMS5003;23175;-33.706;151.094;2023-07-20T06:39:20;1;1;
37290;PMS5003;23175;-33.706;151.094;2023-07-20T06:41:50;1;1;
37290;PMS5003;23175;-33.706;151.094;2023-07-20T06:44:21;1;1;
37290;PMS5003;23175;-33.706;151.094;2023-07-20T06:46:51;0;0;
37290;PMS5003;23175;-33.706;151.094;2023-07-20T06:49:25;1;1;
37290;PMS5003;23175;-33.706;151.094;2023-07-20T06:51:56;1;1;
37290;PMS5003;23175;-33.706;151.094;2023-07-20T06:54:26;1;1;
37290;PMS5003;23175;-33.706;151.094;2023-07-20T06:56:56;1;1;
37290;PMS5003;23175;-33.706;151.094;2023-07-20T06:59:26;0;0;
37290;PMS5003;23175;-33.706;151.094;2023-07-20T07:01:56;2;1;
37290;PMS5003;23175;-33.706;151.094;2023-07-20T07:04:26;0;0;
37290;PMS5003;23175;-33.706;151.094;2023-07-20T07:06:56;0;0;
37290;PMS5003;23175;-33.706;151.094;2023-07-20T07:09:26;1;0;
37290;PMS5003;23175;-33.706;151.094;2023-07-20T07:11:56;2;2;
37290;PMS5003;23175;-33.706;151.094;2023-07-20T07:14:26;2;2;
37290;PMS5003;23175;-33.706;151.094;2023-07-20T07:17:01;2;1;
37290;PMS5003;23175;-33.706;151.094;2023-07-20T07:19:32;2;0;
37290;PMS5003;23175;-33.706;151.094;2023-07-20T07:22:02;1;1;
37290;PMS5003;23175;-33.706;151.094;2023-07-20T07:24:37;4;2;
37290;PMS5003;23175;-33.706;151.094;2023-07-20T07:27:12;2;2;
37290;PMS5003;23175;-33.706;151.094;2023-07-20T07:29:42;2;1;
37290;PMS5003;23175;-33.706;151.094;2023-07-20T07:32:12;1;1;
37290;PMS5003;23175;-33.706;151.094;2023-07-20T07:34:44;2;1;
37290;PMS5003;23175;-33.706;151.094;2023-07-20T07:37:14;1;1;
37290;PMS5003;23175;-33.706;151.094;2023-07-20T07:39:44;2;2;
37290;PMS5003;23175;-33.706;151.094;2023-07-20T07:42:14;5;3;
37290;PMS5003;23175;-33.706;151.094;2023-07-20T07:44:44;1;1;
37290;PMS5003;23175;-33.706;151.094;2023-07-20T07:47:14;4;4;
37290;PMS5003;23175;-33.706;151.094;2023-07-20T07:49:44;4;4;
37290;PMS5003;23175;-33.706;151.094;2023-07-20T07:52:13;5;4;
37290;PMS5003;23175;-33.706;151.094;2023-07-20T07:54:43;8;6;
37290;PMS5003;23175;-33.706;151.094;2023-07-20T07:57:13;15;12;
37290;PMS5003;23175;-33.706;151.094;2023-07-20T07:59:44;12;11;
37290;PMS5003;23175;-33.706;151.094;2023-07-20T08:02:14;15;14;
37290;PMS5003;23175;-33.706;151.094;2023-07-20T08:04:44;18;17;
37290;PMS5003;23175;-33.706;151.094;2023-07-20T08:07:14;18;18;
37290;PMS5003;23175;-33.706;151.094;2023-07-20T08:09:44;15;13;
37290;PMS5003;23175;-33.706;151.094;2023-07-20T08:12:14;14;14;
37290;PMS5003;23175;-33.706;151.094;2023-07-20T08:14:44;14;14;
37290;PMS5003;23175;-33.706;151.094;2023-07-20T08:17:14;15;14;
37290;PMS5003;23175;-33.706;151.094;2023-07-20T08:19:45;20;18;
37290;PMS5003;23175;-33.706;151.094;2023-07-20T08:22:15;15;13;
37290;PMS5003;23175;-33.706;151.094;2023-07-20T08:24:45;15;15;
37290;PMS5003;23175;-33.706;151.094;2023-07-20T08:27:15;18;17;
37290;PMS5003;23175;-33.706;151.094;2023-07-20T08:29:45;19;17;
37290;PMS5003;23175;-33.706;151.094;2023-07-20T08:32:15;16;16;
37290;PMS5003;23175;-33.706;151.094;2023-07-20T08:34:46;14;14;
37290;PMS5003;23175;-33.706;151.094;2023-07-20T08:37:16;16;14;
37290;PMS5003;23175;-33.706;151.094;2023-07-20T08:39:46;17;15;
37290;PMS5003;23175;-33.706;151.094;2023-07-20T08:42:15;18;16;
37290;PMS5003;23175;-33.706;151.094;2023-07-20T08:44:46;22;20;
37290;PMS5003;23175;-33.706;151.094;2023-07-20T08:47:20;15;14;
37290;PMS5003;23175;-33.706;151.094;2023-07-20T08:49:52;19;19;
37290;PMS5003;23175;-33.706;151.094;2023-07-20T08:52:23;19;16;
37290;PMS5003;23175;-33.706;151.094;2023-07-20T08:55:04;17;15;
37290;PMS5003;23175;-33.706;151.094;2023-07-20T08:57:34;15;14;
37290;PMS5003;23175;-33.706;151.094;2023-07-20T09:00:08;24;23;
37290;PMS5003;23175;-33.706;151.094;2023-07-20T09:02:41;15;14;
37290;PMS5003;23175;-33.706;151.094;2023-07-20T09:05:13;17;17;
37290;PMS5003;23175;-33.706;151.094;2023-07-20T09:07:43;15;14;
37290;PMS5003;23175;-33.706;151.094;2023-07-20T09:10:13;13;13;
37290;PMS5003;23175;-33.706;151.094;2023-07-20T09:12:44;16;14;
37290;PMS5003;23175;-33.706;151.094;2023-07-20T09:15:14;18;14;
37290;PMS5003;23175;-33.706;151.094;2023-07-20T09:17:46;13;13;
37290;PMS5003;23175;-33.706;151.094;2023-07-20T09:20:18;12;12;
37290;PMS5003;23175;-33.706;151.094;2023-07-20T09:22:48;16;13;
37290;PMS5003;23175;-33.706;151.094;2023-07-20T09:25:20;9;9;
37290;PMS5003;23175;-33.706;151.094;2023-07-20T09:27:52;14;11;
37290;PMS5003;23175;-33.706;151.094;2023-07-20T09:30:24;15;15;
37290;PMS5003;23175;-33.706;151.094;2023-07-20T09:32:54;13;10;
37290;PMS5003;23175;-33.706;151.094;2023-07-20T09:35:24;11;11;
37290;PMS5003;23175;-33.706;151.094;2023-07-20T09:37:55;9;9;
37290;PMS5003;23175;-33.706;151.094;2023-07-20T09:40:28;9;9;
37290;PMS5003;23175;-33.706;151.094;2023-07-20T09:42:58;11;10;
37290;PMS5003;23175;-33.706;151.094;2023-07-20T09:45:30;7;7;
37290;PMS5003;23175;-33.706;151.094;2023-07-20T09:48:06;11;10;
37290;PMS5003;23175;-33.706;151.094;2023-07-20T09:50:40;13;13;
37290;PMS5003;23175;-33.706;151.094;2023-07-20T09:53:12;9;9;
37290;PMS5003;23175;-33.706;151.094;2023-07-20T09:55:43;8;8;
37290;PMS5003;23175;-33.706;151.094;2023-07-20T09:58:14;9;7;
37290;PMS5003;23175;-33.706;151.094;2023-07-20T10:00:45;7;6;
37290;PMS5003;23175;-33.706;151.094;2023-07-20T10:03:18;12;12;
37290;PMS5003;23175;-33.706;151.094;2023-07-20T10:05:51;8;8;
37290;PMS5003;23175;-33.706;151.094;2023-07-20T10:08:24;10;9;
37290;PMS5003;23175;-33.706;151.094;2023-07-20T10:10:57;9;9;
37290;PMS5003;23175;-33.706;151.094;2023-07-20T10:13:30;14;11;
37290;PMS5003;23175;-33.706;151.094;2023-07-20T10:16:06;8;8;
37290;PMS5003;23175;-33.706;151.094;2023-07-20T10:18:44;16;16;
37290;PMS5003;23175;-33.706;151.094;2023-07-20T10:21:19;13;13;
37290;PMS5003;23175;-33.706;151.094;2023-07-20T10:23:50;14;12;
37290;PMS5003;23175;-33.706;151.094;2023-07-20T10:26:20;15;12;
37290;PMS5003;23175;-33.706;151.094;2023-07-20T10:28:51;19;18;
37290;PMS5003;23175;-33.706;151.094;2023-07-20T10:31:22;17;15;
37290;PMS5003;23175;-33.706;151.094;2023-07-20T10:33:53;12;12;
37290;PMS5003;23175;-33.706;151.094;2023-07-20T10:36:25;15;15;
37290;PMS5003;23175;-33.706;151.094;2023-07-20T10:38:56;14;12;
37290;PMS5003;23175;-33.706;151.094;2023-07-20T10:41:28;15;14;
37290;PMS5003;23175;-33.706;151.094;2023-07-20T10:44:03;14;12;
37290;PMS5003;23175;-33.706;151.094;2023-07-20T10:46:42;21;18;
37290;PMS5003;23175;-33.706;151.094;2023-07-20T10:49:13;17;13;
37290;PMS5003;23175;-33.706;151.094;2023-07-20T10:51:44;14;13;
37290;PMS5003;23175;-33.706;151.094;2023-07-20T10:55:00;16;15;
37290;PMS5003;23175;-33.706;151.094;2023-07-20T10:57:42;18;18;
37290;PMS5003;23175;-33.706;151.094;2023-07-20T11:00:34;13;13;
37290;PMS5003;23175;-33.706;151.094;2023-07-20T11:03:08;15;14;
37290;PMS5003;23175;-33.706;151.094;2023-07-20T11:05:54;19;19;
37290;PMS5003;23175;-33.706;151.094;2023-07-20T11:08:38;20;20;
37290;PMS5003;23175;-33.706;151.094;2023-07-20T11:11:30;18;16;
37290;PMS5003;23175;-33.706;151.094;2023-07-20T11:14:01;15;14;
37290;PMS5003;23175;-33.706;151.094;2023-07-20T11:16:35;12;9;
37290;PMS5003;23175;-33.706;151.094;2023-07-20T11:19:12;9;9;
37290;PMS5003;23175;-33.706;151.094;2023-07-20T11:21:44;7;7;
37290;PMS5003;23175;-33.706;151.094;2023-07-20T11:24:18;7;7;
37290;PMS5003;23175;-33.706;151.094;2023-07-20T11:26:49;8;6;
37290;PMS5003;23175;-33.706;151.094;2023-07-20T11:29:20;10;7;
37290;PMS5003;23175;-33.706;151.094;2023-07-20T11:31:51;6;6;
37290;PMS5003;23175;-33.706;151.094;2023-07-20T11:34:21;8;8;
37290;PMS5003;23175;-33.706;151.094;2023-07-20T11:36:51;8;6;
37290;PMS5003;23175;-33.706;151.094;2023-07-20T11:39:21;9;9;
37290;PMS5003;23175;-33.706;151.094;2023-07-20T11:41:52;8;7;
37290;PMS5003;23175;-33.706;151.094;2023-07-20T11:44:24;7;7;
37290;PMS5003;23175;-33.706;151.094;2023-07-20T11:47:03;8;7;
37290;PMS5003;23175;-33.706;151.094;2023-07-20T11:49:36;7;7;
37290;PMS5003;23175;-33.706;151.094;2023-07-20T11:52:07;8;8;
37290;PMS5003;23175;-33.706;151.094;2023-07-20T11:54:39;8;7;
37290;PMS5003;23175;-33.706;151.094;2023-07-20T11:57:16;7;5;
37290;PMS5003;23175;-33.706;151.094;2023-07-20T11:59:54;8;7;
37290;PMS5003;23175;-33.706;151.094;2023-07-20T12:02:26;6;6;
37290;PMS5003;23175;-33.706;151.094;2023-07-20T12:04:57;3;3;
37290;PMS5003;23175;-33.706;151.094;2023-07-20T12:07:28;7;6;
37290;PMS5003;23175;-33.706;151.094;2023-07-20T12:10:04;6;5;
37290;PMS5003;23175;-33.706;151.094;2023-07-20T12:12:41;5;5;
37290;PMS5003;23175;-33.706;151.094;2023-07-20T12:15:19;7;7;
37290;PMS5003;23175;-33.706;151.094;2023-07-20T12:17:53;6;5;
37290;PMS5003;23175;-33.706;151.094;2023-07-20T12:20:28;6;5;
37290;PMS5003;23175;-33.706;151.094;2023-07-20T12:23:00;5;5;
37290;PMS5003;23175;-33.706;151.094;2023-07-20T12:25:37;6;6;
37290;PMS5003;23175;-33.706;151.094;2023-07-20T12:28:08;7;7;
37290;PMS5003;23175;-33.706;151.094;2023-07-20T12:30:40;6;6;
37290;PMS5003;23175;-33.706;151.094;2023-07-20T12:33:11;5;5;
37290;PMS5003;23175;-33.706;151.094;2023-07-20T12:35:41;8;6;
37290;PMS5003;23175;-33.706;151.094;2023-07-20T12:38:12;4;4;
37290;PMS5003;23175;-33.706;151.094;2023-07-20T12:40:42;6;6;
37290;PMS5003;23175;-33.706;151.094;2023-07-20T12:43:12;8;7;
37290;PMS5003;23175;-33.706;151.094;2023-07-20T12:45:42;6;6;
37290;PMS5003;23175;-33.706;151.094;2023-07-20T12:48:12;3;3;
37290;PMS5003;23175;-33.706;151.094;2023-07-20T12:50:42;8;5;
37290;PMS5003;23175;-33.706;151.094;2023-07-20T12:53:12;5;5;
37290;PMS5003;23175;-33.706;151.094;2023-07-20T12:55:43;7;5;
37290;PMS5003;23175;-33.706;151.094;2023-07-20T12:58:13;7;6;
37290;PMS5003;23175;-33.706;151.094;2023-07-20T13:00:43;7;6;
37290;PMS5003;23175;-33.706;151.094;2023-07-20T13:03:13;5;5;
37290;PMS5003;23175;-33.706;151.094;2023-07-20T13:05:43;7;6;
37290;PMS5003;23175;-33.706;151.094;2023-07-20T13:08:13;7;7;
37290;PMS5003;23175;-33.706;151.094;2023-07-20T13:10:43;7;7;
37290;PMS5003;23175;-33.706;151.094;2023-07-20T13:13:13;6;6;
37290;PMS5003;23175;-33.706;151.094;2023-07-20T13:15:44;8;8;
37290;PMS5003;23175;-33.706;151.094;2023-07-20T13:18:14;6;6;
37290;PMS5003;23175;-33.706;151.094;2023-07-20T13:20:44;7;7;
37290;PMS5003;23175;-33.706;151.094;2023-07-20T13:23:14;6;6;
37290;PMS5003;23175;-33.706;151.094;2023-07-20T13:25:44;6;6;
37290;PMS5003;23175;-33.706;151.094;2023-07-20T13:28:14;6;6;
37290;PMS5003;23175;-33.706;151.094;2023-07-20T13:30:43;7;7;
37290;PMS5003;23175;-33.706;151.094;2023-07-20T13:33:14;8;8;
37290;PMS5003;23175;-33.706;151.094;2023-07-20T13:35:48;10;9;
37290;PMS5003;23175;-33.706;151.094;2023-07-20T13:38:19;11;11;
37290;PMS5003;23175;-33.706;151.094;2023-07-20T13:40:50;7;7;
37290;PMS5003;23175;-33.706;151.094;2023-07-20T13:43:20;8;8;
37290;PMS5003;23175;-33.706;151.094;2023-07-20T13:45:51;10;9;
37290;PMS5003;23175;-33.706;151.094;2023-07-20T13:48:21;11;8;
37290;PMS5003;23175;-33.706;151.094;2023-07-20T13:50:52;10;9;
37290;PMS5003;23175;-33.706;151.094;2023-07-20T13:53:21;14;12;
37290;PMS5003;23175;-33.706;151.094;2023-07-20T13:55:53;12;11;
37290;PMS5003;23175;-33.706;151.094;2023-07-20T13:58:23;11;11;
37290;PMS5003;23175;-33.706;151.094;2023-07-20T14:00:54;11;9;
37290;PMS5003;23175;-33.706;151.094;2023-07-20T14:03:23;10;9;
37290;PMS5003;23175;-33.706;151.094;2023-07-20T14:05:53;18;13;
37290;PMS5003;23175;-33.706;151.094;2023-07-20T14:08:23;14;10;
37290;PMS5003;23175;-33.706;151.094;2023-07-20T14:10:53;11;11;
37290;PMS5003;23175;-33.706;151.094;2023-07-20T14:13:28;12;10;
37290;PMS5003;23175;-33.706;151.094;2023-07-20T14:15:58;10;8;
37290;PMS5003;23175;-33.706;151.094;2023-07-20T14:18:28;12;10;
37290;PMS5003;23175;-33.706;151.094;2023-07-20T14:20:59;7;7;
37290;PMS5003;23175;-33.706;151.094;2023-07-20T14:23:34;10;8;
37290;PMS5003;23175;-33.706;151.094;2023-07-20T14:26:04;8;8;
37290;PMS5003;23175;-33.706;151.094;2023-07-20T14:28:35;8;7;
37290;PMS5003;23175;-33.706;151.094;2023-07-20T14:31:05;5;5;
37290;PMS5003;23175;-33.706;151.094;2023-07-20T14:33:35;8;5;
37290;PMS5003;23175;-33.706;151.094;2023-07-20T14:36:05;4;4;
37290;PMS5003;23175;-33.706;151.094;2023-07-20T14:38:35;8;8;
37290;PMS5003;23175;-33.706;151.094;2023-07-20T14:41:05;7;7;
37290;PMS5003;23175;-33.706;151.094;2023-07-20T14:43:37;5;5;
37290;PMS5003;23175;-33.706;151.094;2023-07-20T14:46:07;5;5;
37290;PMS5003;23175;-33.706;151.094;2023-07-20T14:48:37;3;2;
37290;PMS5003;23175;-33.706;151.094;2023-07-20T14:51:08;2;2;
37290;PMS5003;23175;-33.706;151.094;2023-07-20T14:53:38;4;2;
37290;PMS5003;23175;-33.706;151.094;2023-07-20T14:56:08;2;2;
37290;PMS5003;23175;-33.706;151.094;2023-07-20T14:58:39;4;3;
37290;PMS5003;23175;-33.706;151.094;2023-07-20T15:01:09;1;1;
37290;PMS5003;23175;-33.706;151.094;2023-07-20T15:03:39;3;1;
37290;PMS5003;23175;-33.706;151.094;2023-07-20T15:06:10;0;0;
37290;PMS5003;23175;-33.706;151.094;2023-07-20T15:08:41;4;2;
37290;PMS5003;23175;-33.706;151.094;2023-07-20T15:11:11;3;3;
37290;PMS5003;23175;-33.706;151.094;2023-07-20T15:13:41;2;2;
37290;PMS5003;23175;-33.706;151.094;2023-07-20T15:16:11;3;3;
37290;PMS5003;23175;-33.706;151.094;2023-07-20T15:18:41;2;2;
37290;PMS5003;23175;-33.706;151.094;2023-07-20T15:21:11;3;3;
37290;PMS5003;23175;-33.706;151.094;2023-07-20T15:23:41;2;2;
37290;PMS5003;23175;-33.706;151.094;2023-07-20T15:26:11;1;1;
37290;PMS5003;23175;-33.706;151.094;2023-07-20T15:28:41;1;1;
37290;PMS5003;23175;-33.706;151.094;2023-07-20T15:31:11;1;1;
37290;PMS5003;23175;-33.706;151.094;2023-07-20T15:33:41;1;1;
37290;PMS5003;23175;-33.706;151.094;2023-07-20T15:36:11;2;2;
37290;PMS5003;23175;-33.706;151.094;2023-07-20T15:38:41;0;0;
37290;PMS5003;23175;-33.706;151.094;2023-07-20T15:41:14;1;1;
37290;PMS5003;23175;-33.706;151.094;2023-07-20T15:43:44;2;2;
37290;PMS5003;23175;-33.706;151.094;2023-07-20T15:46:55;3;3;
37290;PMS5003;23175;-33.706;151.094;2023-07-20T15:49:30;1;1;
37290;PMS5003;23175;-33.706;151.094;2023-07-20T15:52:00;0;0;
37290;PMS5003;23175;-33.706;151.094;2023-07-20T15:54:30;2;2;
37290;PMS5003;23175;-33.706;151.094;2023-07-20T15:57:00;1;1;
37290;PMS5003;23175;-33.706;151.094;2023-07-20T15:59:31;2;1;
37290;PMS5003;23175;-33.706;151.094;2023-07-20T16:02:01;4;2;
37290;PMS5003;23175;-33.706;151.094;2023-07-20T16:04:31;1;1;
37290;PMS5003;23175;-33.706;151.094;2023-07-20T16:07:01;1;1;
37290;PMS5003;23175;-33.706;151.094;2023-07-20T16:09:31;0;0;
37290;PMS5003;23175;-33.706;151.094;2023-07-20T16:12:01;1;1;
37290;PMS5003;23175;-33.706;151.094;2023-07-20T16:14:31;1;1;
37290;PMS5003;23175;-33.706;151.094;2023-07-20T16:17:01;3;1;
37290;PMS5003;23175;-33.706;151.094;2023-07-20T16:19:31;2;1;
37290;PMS5003;23175;-33.706;151.094;2023-07-20T16:22:01;0;0;